ENSG/SOG METAR and TAF weather

Enter ICAO airport designator
Station Type Date Time Source
ENSG METAR 2020/08/05 16:20 UTC NOAA

ENSG 051620Z 07004KT 9999 FEW/// BKN016 11/11 Q1007 RMK WIND 3806FT 19015KT


Station Type Date Time Source
ENSG Decoded METAR 2020/08/05 16:20 UTC NOAA

Sogndal / Haukasen, Norway (ENSG) 61-09N 007-08E 497M
Aug 05, 2020 - 12:20 PM EDT / 2020.08.05 1620 UTC
Wind: from the ENE (070 degrees) at 5 MPH (4 KT):0
Visibility: greater than 7 mile(s):0
Sky conditions: mostly cloudy
Temperature: 51 F (11 C)
Dew Point: 51 F (11 C)
Relative Humidity: 100%
Pressure (altimeter): 29.74 in. Hg (1007 hPa)
ob: ENSG 051620Z 07004KT 9999 FEW/// BKN016 11/11 Q1007 RMK WIND 3806FT 19015KT
cycle: 16

Station Type Date Time Source
ENSG TAF UTC NOAA

Error!

Example: see airport list